Ammie — WDF8286 — position and weather

sailwx.info

Track history (hours):
 
Tides and Currents Weather Stations Pressure Air Temp Water Temp Dewpoint Dewpoint Depression Visibility Wind Speed Wind Dir Waves Ship Positions

Ammie

Owner: Enterprise Marine Services, LLC, San Antonio, TX. More information available from US FCC via Universal Licensing System and Coast Guard Vessel Documentation Center.

Last reported at 2018-Apr-23 03:32 UTC. Time now 2018-Apr-24 14:32 UTC.
Position N 32°37' W 091°09'.

Length 30 m; draft 3 m.

Type: Tug. MMSI: 367448570.

Date/timePositionNaut miles runAvg speedWind from/ knotsBaromVisibWave heightAir tempDewpointWater temp
2018-Apr-23 03:32N 32°37' W 091°09'0 5.0
2018-Apr-23 03:29N 32°37' W 091°09'2 4.4
2018-Apr-23 03:01N 32°35' W 091°07'2 4.5
2018-Apr-23 02:28N 32°33' W 091°07'2 5.2
2018-Apr-23 02:00N 32°30' W 091°07'2 4.4
2018-Apr-23 01:31N 32°28' W 091°06'2 4.8
2018-Apr-23 01:00N 32°27' W 091°04'2 4.5
2018-Apr-23 00:31N 32°26' W 091°01'2 4.1
2018-Apr-23 00:01N 32°24' W 090°60'2 4.9
2018-Apr-22 23:31N 32°22' W 091°00'2 4.3
2018-Apr-22 23:01N 32°21' W 090°58'2 3.9
2018-Apr-22 22:30N 32°21' W 090°56'2 3.7
2018-Apr-22 22:01N 32°19' W 090°54'1 2.9
2018-Apr-22 21:31N 32°18' W 090°55'0 0.1
2018-Apr-22 21:00N 32°18' W 090°55'0 0.0
2018-Apr-22 20:30N 32°18' W 090°55'0 0.0
2018-Apr-22 19:59N 32°18' W 090°55'0 0.0
2018-Apr-22 19:29N 32°18' W 090°55'0 0.0
2018-Apr-22 19:00N 32°18' W 090°55'0 0.0
2018-Apr-22 18:30N 32°18' W 090°55'0 0.0
2018-Apr-22 18:01N 32°18' W 090°55'0 0.0
2018-Apr-22 17:31N 32°18' W 090°55'0 0.0
2018-Apr-22 16:58N 32°18' W 090°55'1 2.1
2018-Apr-22 16:31N 32°18' W 090°56'2 4.0
2018-Apr-22 16:01N 32°16' W 090°58'3 5.1
2018-Apr-22 15:30N 32°14' W 090°59'3 5.1
2018-Apr-22 15:00N 32°11' W 090°60'2 4.2
2018-Apr-22 14:31N 32°09' W 090°60'3 4.6
2018-Apr-22 13:56N 32°07' W 091°02'2 3.6
2018-Apr-22 13:30N 32°08' W 091°04'2 4.0
2018-Apr-22 12:59N 32°08' W 091°06'5 4.7
2018-Apr-22 11:54N 32°03' W 091°04'  
2018-Apr-15 17:28N 32°01' W 091°04'4 7.9
2018-Apr-15 16:59N 32°04' W 091°04'3 5.9
2018-Apr-15 16:26N 32°08' W 091°04'4 8.7
2018-Apr-15 16:00N 32°09' W 091°00'510.8
2018-Apr-15 15:30N 32°14' W 090°59'4 8.6
2018-Apr-15 15:00N 32°17' W 090°56'3 6.7
2018-Apr-15 14:30N 32°21' W 090°56'4 8.2
2018-Apr-15 14:00N 32°22' W 091°00'4 8.1
2018-Apr-15 13:30N 32°26' W 091°02'510.8
2018-Apr-15 13:00N 32°29' W 091°07'5 9.0
2018-Apr-15 12:26N 32°34' W 091°06'  
Track history (hours):
 
Tides and Currents Weather Stations Pressure Air Temp Water Temp Dewpoint Dewpoint Depression Visibility Wind Speed Wind Dir Waves Ship Positions

Ammie

Owner: Enterprise Marine Services, LLC, San Antonio, TX. More information available from US FCC via Universal Licensing System and Coast Guard Vessel Documentation Center.

Last reported at 2018-Apr-23 03:32 UTC. Time now 2018-Apr-24 14:32 UTC.
Position N 32°37' W 091°09'.

Length 30 m; draft 3 m.

Type: Tug. MMSI: 367448570.

Date/timePositionNaut miles runAvg speedWind from/ knotsBaromVisibWave heightAir tempDewpointWater temp
2018-Apr-23 03:32N 32°37' W 091°09'0 5.0
2018-Apr-23 03:29N 32°37' W 091°09'2 4.4
2018-Apr-23 03:01N 32°35' W 091°07'2 4.5
2018-Apr-23 02:28N 32°33' W 091°07'2 5.2
2018-Apr-23 02:00N 32°30' W 091°07'2 4.4
2018-Apr-23 01:31N 32°28' W 091°06'2 4.8
2018-Apr-23 01:00N 32°27' W 091°04'2 4.5
2018-Apr-23 00:31N 32°26' W 091°01'2 4.1
2018-Apr-23 00:01N 32°24' W 090°60'2 4.9
2018-Apr-22 23:31N 32°22' W 091°00'2 4.3
2018-Apr-22 23:01N 32°21' W 090°58'2 3.9
2018-Apr-22 22:30N 32°21' W 090°56'2 3.7
2018-Apr-22 22:01N 32°19' W 090°54'1 2.9
2018-Apr-22 21:31N 32°18' W 090°55'0 0.1
2018-Apr-22 21:00N 32°18' W 090°55'0 0.0
2018-Apr-22 20:30N 32°18' W 090°55'0 0.0
2018-Apr-22 19:59N 32°18' W 090°55'0 0.0
2018-Apr-22 19:29N 32°18' W 090°55'0 0.0
2018-Apr-22 19:00N 32°18' W 090°55'0 0.0
2018-Apr-22 18:30N 32°18' W 090°55'0 0.0
2018-Apr-22 18:01N 32°18' W 090°55'0 0.0
2018-Apr-22 17:31N 32°18' W 090°55'0 0.0
2018-Apr-22 16:58N 32°18' W 090°55'1 2.1
2018-Apr-22 16:31N 32°18' W 090°56'2 4.0
2018-Apr-22 16:01N 32°16' W 090°58'3 5.1
2018-Apr-22 15:30N 32°14' W 090°59'3 5.1
2018-Apr-22 15:00N 32°11' W 090°60'2 4.2
2018-Apr-22 14:31N 32°09' W 090°60'3 4.6
2018-Apr-22 13:56N 32°07' W 091°02'2 3.6
2018-Apr-22 13:30N 32°08' W 091°04'2 4.0
2018-Apr-22 12:59N 32°08' W 091°06'5 4.7
2018-Apr-22 11:54N 32°03' W 091°04'  
2018-Apr-15 17:28N 32°01' W 091°04'4 7.9
2018-Apr-15 16:59N 32°04' W 091°04'3 5.9
2018-Apr-15 16:26N 32°08' W 091°04'4 8.7
2018-Apr-15 16:00N 32°09' W 091°00'510.8
2018-Apr-15 15:30N 32°14' W 090°59'4 8.6
2018-Apr-15 15:00N 32°17' W 090°56'3 6.7
2018-Apr-15 14:30N 32°21' W 090°56'4 8.2
2018-Apr-15 14:00N 32°22' W 091°00'4 8.1
2018-Apr-15 13:30N 32°26' W 091°02'510.8
2018-Apr-15 13:00N 32°29' W 091°07'5 9.0
2018-Apr-15 12:26N 32°34' W 091°06'  

Dump ship's entire track history